Scott AFB, Illinois
Current Conditions -  °F | °C
As of 7:58 PM on Wednesday 17 Dec 2014 (Local Time) from KBLV Reporting Station
Clear Clear  
Wind Chill: 26°   Ceiling: Unl
Heat Index: 31°   Visibility: 10mi
Dew Point: 28°   Wind: 5mph
Humidity: 89%   Direction: 40°NE
Pressure: 30.29"   Gusts: NA
Location:  38.54°N, 89.85°W
Report Text: KBLV 180158Z AUTO 04004KT 10SM CLR M01/M02 A3029 RMK AO2 SLP265 T10081024
Loading
Personal Weather Stations






























Interactive Weather Map New forecast layout! Learn more

10-Day Weather Forecast

Advertisements
Track Severe Weather on mobile